Rayville, Missouri
Current Conditions -  °F | °C
As of 6:55 AM on Saturday 25 Oct 2014 (Local Time) from KGPH Reporting Station
Moderate Fog Moderate Fog  
Wind Chill: 52°   Ceiling: NA
Heat Index: 52°   Visibility: 0mi
Dew Point: 52°   Wind: 0mph
Humidity: 100%   Direction: NA
Pressure: 30.04"   Gusts: NA
Location:  39.35°N, 94.06°W
Report Text: KGPH 251155Z AUTO 00000KT M1/4SM FG 11/11 A3004 RMK AO2
Loading
Personal Weather Stations






























Interactive Weather Map
Tropical Storm Tracking
New forecast layout! Learn more

10-Day Weather Forecast

Advertisements
Track Severe Weather on mobile